.
WxDataArchive / Data Records for 2009-07-26
2009-07-25 July 2009 2009-07-27

Data Records for Sunday, 26 July 2009

Time	Temp	Chill	HIndex	Humid	Dewpt	 Wind 	HiWind	WindDir	Rain 	Barom 
-----	----	-----	------	-----	-----	------	------	-------	-----	----- 
00:00	69.3	69.3	69.3	72	59.9	0	2	270	0.00	29.776 
00:05	69.3	69.3	69.3	72	59.9	0	1	270	0.00	29.776 
00:10	69.1	69.1	69.1	72	59.7	0	2	270	0.00	29.776 
00:15	68.9	68.9	68.9	72	59.5	0	2	270	0.00	29.778 
00:20	68.9	68.9	68.9	73	59.9	0	2	270	0.00	29.778 
00:25	68.8	68.8	68.8	73	59.8	0	2	270	0.00	29.778 
00:30	68.8	68.8	68.8	73	59.8	0	3	270	0.00	29.778 
00:35	68.6	68.6	68.6	73	59.6	0	1	202	0.00	29.778 
00:40	68.6	68.6	68.6	73	59.6	0	1	202	0.00	29.778 
00:45	68.4	68.4	68.4	74	59.8	1	3	202	0.00	29.780 
00:50	68.4	68.4	68.4	74	59.8	0	2	248	0.00	29.780 
00:55	68.4	68.4	68.4	74	59.8	1	3	248	0.00	29.780 
01:00	68.4	68.4	68.4	73	59.4	0	1	270	0.00	29.777 
01:05	68.4	68.4	68.4	74	59.8	0	2	270	0.00	29.777 
01:10	68.3	68.3	68.3	74	59.7	0	2	270	0.00	29.777 
01:15	68.1	68.1	68.1	74	59.5	1	3	270	0.00	29.778 
01:20	68.1	68.1	68.1	75	59.9	0	2	270	0.00	29.778 
01:25	67.9	67.9	67.9	75	59.7	0	2	270	0.00	29.778 
01:30	67.9	67.9	67.9	76	60.0	0	2	270	0.00	29.778 
01:35	67.8	67.8	67.8	76	59.9	0	1	270	0.00	29.778 
01:40	67.6	67.6	67.6	76	59.8	0	1	270	0.00	29.778 
01:45	67.4	67.4	67.4	77	59.9	0	0	---	0.00	29.781 
01:50	67.1	67.1	67.1	78	60.0	0	0	---	0.00	29.781 
01:55	66.8	66.8	66.8	78	59.7	0	1	270	0.00	29.781 
02:00	66.4	66.4	66.4	79	59.7	0	1	270	0.00	29.781 
02:05	66.3	66.3	66.3	80	59.9	0	1	270	0.00	29.781 
02:10	66.3	66.3	66.3	80	59.9	0	0	---	0.00	29.781 
02:15	66.1	66.1	66.1	81	60.1	0	1	270	0.00	29.780 
02:20	66.0	66.0	66.0	81	60.0	0	2	270	0.00	29.780 
02:25	66.0	66.0	66.0	81	60.0	0	1	270	0.00	29.780 
02:30	66.0	66.0	66.0	82	60.3	0	1	270	0.00	29.778 
02:35	66.0	66.0	66.0	82	60.3	0	1	270	0.00	29.778 
02:40	65.8	65.8	65.8	82	60.1	0	0	---	0.00	29.778 
02:45	65.8	65.8	65.8	83	60.5	0	1	270	0.00	29.777 
02:50	65.8	65.8	65.8	83	60.5	0	1	270	0.00	29.777 
02:55	65.6	65.6	65.6	83	60.3	0	1	270	0.00	29.777 
03:00	65.6	65.6	65.6	83	60.3	0	1	270	0.00	29.769 
03:05	65.6	65.6	65.6	83	60.3	0	1	270	0.00	29.769 
03:10	65.5	65.5	65.5	83	60.2	0	1	270	0.00	29.769 
03:15	65.3	65.3	65.3	83	60.0	0	1	270	0.00	29.769 
03:20	65.2	65.2	65.2	84	60.2	0	0	---	0.00	29.769 
03:25	65.0	65.0	65.0	84	60.0	0	1	270	0.00	29.769 
03:30	65.0	65.0	65.0	84	60.0	0	1	270	0.00	29.765 
03:35	64.8	64.8	64.8	84	59.8	0	0	---	0.00	29.765 
03:40	64.8	64.8	64.8	84	59.8	0	1	270	0.00	29.765 
03:45	64.7	64.7	64.7	85	60.1	0	1	270	0.00	29.766 
03:50	64.7	64.7	64.7	85	60.1	0	1	270	0.00	29.766 
03:55	64.7	64.7	64.7	85	60.1	0	1	270	0.00	29.766 
04:00	64.5	64.5	64.5	85	59.9	0	1	270	0.00	29.772 
04:05	64.5	64.5	64.5	85	59.9	0	1	270	0.00	29.772 
04:10	64.5	64.5	64.5	86	60.2	0	0	---	0.00	29.772 
04:15	64.5	64.5	64.5	86	60.2	0	1	270	0.00	29.769 
04:20	64.5	64.5	64.5	86	60.2	0	1	270	0.00	29.769 
04:25	64.5	64.5	64.5	86	60.2	0	1	270	0.00	29.769 
04:30	64.5	64.5	64.5	86	60.2	0	1	270	0.00	29.773 
04:35	64.3	64.3	64.3	86	60.0	0	2	270	0.00	29.773 
04:40	64.3	64.3	64.3	86	60.0	0	4	248	0.00	29.773 
04:45	64.3	64.3	64.3	86	60.0	0	2	248	0.00	29.770 
04:50	64.5	64.5	64.5	86	60.2	0	2	248	0.00	29.770 
04:55	64.5	64.5	64.5	86	60.2	0	1	248	0.00	29.770 
05:00	64.3	64.3	64.3	86	60.0	0	1	248	0.00	29.772 
05:05	64.2	64.2	64.2	86	59.9	0	1	248	0.00	29.772 
05:10	64.0	64.0	64.0	87	60.0	0	1	248	0.00	29.772 
05:15	63.9	63.9	63.9	87	59.9	0	1	248	0.00	29.774 
05:20	63.7	63.7	63.7	87	59.8	0	2	248	0.00	29.774 
05:25	63.5	63.5	63.5	88	59.9	0	1	248	0.00	29.774 
05:30	63.4	63.4	63.4	88	59.8	0	1	248	0.00	29.774 
05:35	63.4	63.4	63.4	88	59.8	0	1	248	0.00	29.774 
05:40	63.2	63.2	63.2	89	59.9	0	1	248	0.00	29.774 
05:45	63.2	63.2	63.2	89	59.9	0	1	248	0.00	29.780 
05:50	63.1	63.1	63.1	89	59.8	0	1	248	0.00	29.780 
05:55	63.1	63.1	63.1	89	59.8	0	1	248	0.00	29.780 
06:00	63.1	63.1	63.1	89	59.8	0	2	248	0.00	29.779 
06:05	62.9	62.9	62.9	89	59.6	0	1	248	0.00	29.779 
06:10	62.9	62.9	62.9	89	59.6	0	2	248	0.00	29.779 
06:15	62.9	62.9	62.9	89	59.6	0	1	248	0.00	29.783 
06:20	62.9	62.9	62.9	89	59.6	0	2	248	0.00	29.783 
06:25	62.9	62.9	62.9	89	59.6	0	1	248	0.00	29.783 
06:30	62.7	62.7	62.7	89	59.4	0	1	248	0.00	29.783 
06:35	62.7	62.7	62.7	90	59.7	0	1	248	0.00	29.783 
06:40	62.6	62.6	62.6	90	59.6	0	2	248	0.00	29.783 
06:45	62.6	62.6	62.6	90	59.6	0	1	248	0.00	29.794 
06:50	62.7	62.7	62.7	90	59.7	0	1	248	0.00	29.794 
06:55	62.7	62.7	62.7	90	59.7	0	1	248	0.00	29.794 
07:00	62.7	62.7	62.7	90	59.7	0	2	248	0.00	29.795 
07:05	62.9	62.9	62.9	90	59.9	0	2	248	0.00	29.795 
07:10	62.9	62.9	62.9	89	59.6	0	1	248	0.00	29.795 
07:15	63.1	63.1	63.1	89	59.8	1	3	248	0.00	29.800 
07:20	63.2	63.2	63.2	89	59.9	0	3	248	0.00	29.800 
07:25	63.4	63.4	63.4	88	59.8	0	2	248	0.00	29.800 
07:30	63.5	63.5	63.5	88	59.9	0	2	248	0.00	29.800 
07:35	63.9	63.9	63.9	88	60.3	0	2	248	0.00	29.800 
07:40	64.0	64.0	64.0	87	60.0	0	1	248	0.00	29.800 
07:45	64.3	64.3	64.3	86	60.0	0	2	248	0.00	29.804 
07:50	64.7	64.7	64.7	85	60.1	0	3	248	0.00	29.804 
07:55	65.0	65.0	65.0	85	60.4	0	2	248	0.00	29.804 
08:00	65.3	65.3	65.3	84	60.3	0	2	248	0.00	29.810 
08:05	65.6	65.6	65.6	83	60.3	0	2	248	0.00	29.810 
08:10	65.6	65.6	65.6	82	59.9	1	3	248	0.00	29.810 
08:15	66.0	66.0	66.0	82	60.3	0	2	248	0.00	29.810 
08:20	66.3	66.3	66.3	82	60.6	0	1	248	0.00	29.810 
08:25	66.4	66.4	66.4	81	60.4	0	2	248	0.00	29.810 
08:30	66.9	66.9	66.9	81	60.9	0	2	248	0.00	29.813 
08:35	67.3	67.3	67.3	79	60.6	0	3	248	0.00	29.813 
08:40	67.4	67.4	67.4	79	60.7	1	3	248	0.00	29.813 
08:45	67.6	67.6	67.6	77	60.1	1	4	248	0.00	29.814 
08:50	67.8	67.8	67.8	78	60.7	1	2	248	0.00	29.814 
08:55	68.1	68.1	68.1	77	60.6	1	4	248	0.00	29.814 
09:00	68.4	68.4	68.4	76	60.5	1	4	248	0.00	29.813 
09:05	68.4	68.4	68.4	77	60.9	1	4	270	0.00	29.813 
09:10	68.8	68.8	68.8	77	61.3	1	3	270	0.00	29.813 
09:15	68.9	68.9	68.9	75	60.6	1	4	292	0.00	29.817 
09:20	68.9	68.9	68.9	75	60.6	2	4	292	0.00	29.817 
09:25	69.1	69.1	69.1	75	60.8	2	4	248	0.00	29.817 
09:30	69.4	69.4	69.4	74	60.7	1	3	270	0.00	29.821 
09:35	69.9	69.9	69.9	75	61.6	1	3	248	0.00	29.821 
09:40	70.1	70.1	70.1	74	61.4	0	2	248	0.00	29.821 
09:45	70.3	70.3	70.3	74	61.6	1	4	248	0.00	29.823 
09:50	70.4	70.4	70.4	74	61.7	1	4	270	0.00	29.823 
09:55	70.6	70.6	70.6	72	61.1	2	4	270	0.00	29.823 
10:00	70.8	70.8	70.8	73	61.7	1	4	270	0.00	29.824 
10:05	71.1	71.1	71.1	72	61.6	1	3	292	0.00	29.824 
10:10	70.6	70.6	70.6	72	61.1	2	4	270	0.00	29.824 
10:15	70.6	70.6	70.6	73	61.5	1	3	292	0.00	29.824 
10:20	70.4	70.4	70.4	72	60.9	1	5	270	0.00	29.824 
10:25	70.8	70.8	70.8	72	61.3	1	4	292	0.00	29.824 
10:30	71.1	71.1	71.1	72	61.6	1	5	270	0.00	29.824 
10:35	71.8	71.8	71.8	71	61.9	1	4	248	0.00	29.824 
10:40	72.1	72.1	72.1	69	61.4	2	4	270	0.00	29.824 
10:45	72.5	72.5	72.5	68	61.3	2	5	270	0.00	29.818 
10:50	72.5	72.5	72.5	66	60.5	2	5	270	0.00	29.818 
10:55	72.7	72.7	72.7	67	61.1	2	5	270	0.00	29.818 
11:00	73.0	73.0	73.0	68	61.8	2	4	270	0.00	29.812 
11:05	73.5	73.5	73.5	67	61.9	2	4	270	0.00	29.812 
11:10	74.0	74.0	74.0	65	61.5	2	6	270	0.00	29.812 
11:15	74.2	74.2	74.2	65	61.7	2	4	270	0.00	29.819 
11:20	74.0	74.0	74.0	63	60.6	2	5	270	0.00	29.819 
11:25	73.9	73.9	73.9	64	60.9	3	5	270	0.00	29.819 
11:30	73.9	73.9	73.9	65	61.4	2	7	270	0.00	29.822 
11:35	74.2	74.2	74.2	64	61.2	2	3	292	0.00	29.822 
11:40	74.0	74.0	74.0	63	60.6	2	5	270	0.00	29.822 
11:45	74.2	74.2	74.2	63	60.8	2	7	270	0.00	29.825 
11:50	74.0	74.0	74.0	62	60.1	3	6	270	0.00	29.825 
11:55	73.9	73.9	73.9	65	61.4	2	6	270	0.00	29.825 
12:00	74.2	74.2	74.2	62	60.3	2	4	270	0.00	29.825 
12:05	74.2	74.2	74.2	63	60.8	2	6	270	0.00	29.825 
12:10	75.1	75.1	77.3	62	61.2	3	6	270	0.00	29.825 
12:15	75.4	75.4	77.6	61	61.0	2	4	270	0.00	29.824 
12:20	75.4	75.4	77.6	61	61.0	3	6	270	0.00	29.824 
12:25	75.8	75.8	77.9	59	60.4	2	4	248	0.00	29.824 
12:30	75.8	75.8	77.9	58	59.9	2	5	270	0.00	29.822 
12:35	75.4	75.4	77.7	58	59.6	3	5	270	0.00	29.822 
12:40	75.4	75.4	77.6	60	60.5	2	4	270	0.00	29.822 
12:45	75.8	75.8	77.8	62	61.8	2	5	270	0.00	29.820 
12:50	76.3	76.3	78.2	58	60.4	2	5	270	0.00	29.820 
12:55	76.0	76.0	78.1	57	59.6	2	5	270	0.00	29.820 
13:00	75.8	75.8	77.9	58	59.9	2	5	270	0.00	29.823 
13:05	76.5	76.5	78.4	58	60.6	2	6	248	0.00	29.823 
13:10	76.5	76.5	78.4	58	60.6	2	4	270	0.00	29.823 
13:15	76.1	76.1	78.1	57	59.7	3	5	270	0.00	29.825 
13:20	76.1	76.1	78.1	57	59.7	3	7	270	0.00	29.825 
13:25	76.5	76.5	78.4	57	60.1	2	4	270	0.00	29.825 
13:30	76.5	76.5	78.4	57	60.1	3	7	270	0.00	29.826 
13:35	76.7	76.7	78.5	58	60.8	3	6	270	0.00	29.826 
13:40	77.0	77.0	78.7	55	59.6	2	4	270	0.00	29.826 
13:45	77.0	77.0	78.7	55	59.6	2	5	292	0.00	29.824 
13:50	76.7	76.7	78.5	56	59.8	2	5	270	0.00	29.824 
13:55	77.0	77.0	78.7	57	60.6	2	6	270	0.00	29.824 
14:00	76.8	76.8	78.6	54	58.9	2	6	270	0.00	29.822 
14:05	76.5	76.5	78.4	57	60.1	2	4	270	0.00	29.822 
14:10	77.4	77.4	78.9	53	58.9	3	6	270	0.00	29.822 
14:15	78.1	78.1	79.5	53	59.6	3	5	270	0.00	29.814 
14:20	78.3	78.3	79.5	51	58.7	3	6	292	0.00	29.814 
14:25	77.2	77.2	78.8	53	58.7	3	6	270	0.00	29.814 
14:30	77.4	77.4	79.0	54	59.4	2	4	270	0.00	29.816 
14:35	77.0	77.0	78.7	54	59.1	3	9	270	0.00	29.816 
14:40	76.5	76.5	78.4	56	59.6	2	4	248	0.00	29.816 
14:45	77.2	77.2	78.9	56	60.3	2	4	248	0.00	29.813 
14:50	78.1	78.1	79.4	52	59.0	3	6	270	0.00	29.813 
14:55	78.3	78.3	79.7	54	60.3	3	7	270	0.00	29.813 
15:00	78.8	78.8	79.9	52	59.7	3	6	270	0.00	29.816 
15:05	78.3	78.3	79.5	51	58.7	3	7	270	0.00	29.816 
15:10	78.1	78.1	79.5	53	59.6	3	6	270	0.00	29.816 
15:15	78.6	78.6	79.8	53	60.0	2	5	270	0.00	29.816 
15:20	79.0	79.0	80.0	51	59.3	3	6	270	0.00	29.816 
15:25	78.1	78.1	79.5	53	59.6	3	6	270	0.00	29.816 
15:30	78.6	78.6	79.8	52	59.5	2	6	248	0.00	29.813 
15:35	78.8	78.8	79.9	52	59.7	2	4	270	0.00	29.813 
15:40	78.6	78.6	79.8	53	60.0	2	5	270	0.00	29.813 
15:45	78.8	78.8	79.9	51	59.1	3	7	270	0.00	29.811 
15:50	79.0	79.0	80.1	52	59.8	3	5	315	0.00	29.811 
15:55	79.0	79.0	80.0	50	58.7	3	8	270	0.00	29.811 
16:00	79.0	79.0	80.0	51	59.3	2	4	270	0.00	29.810 
16:05	79.2	79.2	80.1	50	58.9	2	6	270	0.00	29.810 
16:10	78.6	78.6	79.7	51	58.9	3	7	270	0.00	29.810 
16:15	78.1	78.1	79.4	52	59.0	2	5	270	0.00	29.813 
16:20	77.7	77.7	79.2	53	59.2	2	3	248	0.00	29.813 
16:25	78.1	78.1	79.4	52	59.0	3	5	270	0.00	29.813 
16:30	78.1	78.1	79.4	52	59.0	2	4	315	0.00	29.811 
16:35	77.6	77.6	79.0	52	58.6	3	6	270	0.00	29.811 
16:40	77.2	77.2	78.9	55	59.8	2	5	248	0.00	29.811 
16:45	76.8	76.8	78.6	55	59.4	2	4	270	0.00	29.814 
16:50	76.5	76.5	78.4	56	59.6	1	3	270	0.00	29.814 
16:55	76.3	76.3	78.2	58	60.4	2	5	270	0.00	29.814 
17:00	73.5	73.5	73.5	71	63.5	1	5	270	0.02	29.828 
17:05	70.9	70.9	70.9	78	63.7	0	2	270	0.09	29.828 
17:10	69.4	69.4	69.4	83	64.0	0	3	292	0.02	29.828 
17:15	68.8	68.8	68.8	85	64.1	0	2	292	0.00	29.827 
17:20	69.3	69.3	69.3	88	65.6	0	1	292	0.00	29.827 
17:25	69.8	69.8	69.8	88	66.1	0	2	292	0.00	29.827 
17:30	70.3	70.3	70.3	88	66.6	0	2	292	0.00	29.820 
17:35	70.6	70.6	70.6	87	66.5	0	1	292	0.00	29.820 
17:40	70.8	70.8	70.8	86	66.4	0	1	292	0.00	29.820 
17:45	70.9	70.9	70.9	85	66.2	1	3	292	0.00	29.825 
17:50	71.8	71.8	71.8	83	66.3	1	3	270	0.00	29.825 
17:55	72.8	72.8	72.8	76	64.8	2	5	270	0.00	29.825 
18:00	73.9	73.9	73.9	72	64.3	2	5	248	0.00	29.822 
18:05	74.9	74.9	74.9	69	64.0	2	5	270	0.00	29.822 
18:10	75.6	75.6	77.5	65	63.0	2	4	270	0.00	29.822 
18:15	76.0	76.0	77.9	64	62.9	1	4	270	0.00	29.820 
18:20	75.6	75.6	77.6	63	62.1	1	4	270	0.00	29.820 
18:25	74.9	74.9	74.9	62	61.0	1	5	270	0.00	29.820 
18:30	74.6	74.6	74.6	63	61.2	0	2	292	0.00	29.823 
18:35	74.4	74.4	74.4	64	61.4	1	2	292	0.00	29.823 
18:40	74.4	74.4	74.4	65	61.8	1	3	292	0.00	29.823 
18:45	74.6	74.6	74.6	65	62.0	1	3	292	0.00	29.828 
18:50	75.3	75.3	77.4	63	61.8	1	3	315	0.00	29.828 
18:55	75.6	75.6	77.7	61	61.2	1	4	315	0.00	29.828 
19:00	76.0	76.0	78.0	62	62.0	1	3	315	0.00	29.827 
19:05	76.1	76.1	78.1	59	60.7	1	5	248	0.00	29.827 
19:10	76.1	76.1	78.1	58	60.2	2	5	270	0.00	29.827 
19:15	76.0	76.0	78.0	60	61.1	1	3	315	0.00	29.828 
19:20	75.8	75.8	77.8	61	61.4	1	2	315	0.00	29.828 
19:25	75.4	75.4	77.6	61	61.0	0	3	315	0.00	29.828 
19:30	75.3	75.3	77.5	61	60.9	1	2	315	0.00	29.829 
19:35	75.3	75.3	77.5	62	61.4	0	2	315	0.00	29.829 
19:40	75.3	75.3	77.6	59	60.0	1	3	315	0.00	29.829 
19:45	75.4	75.4	77.7	58	59.6	1	2	315	0.00	29.833 
19:50	75.3	75.3	77.6	58	59.5	1	4	0	0.00	29.833 
19:55	75.3	75.3	77.6	58	59.5	1	3	270	0.00	29.833 
20:00	75.3	75.3	77.6	58	59.5	1	2	270	0.00	29.840 
20:05	75.4	75.4	77.6	59	60.1	1	3	270	0.00	29.840 
20:10	75.4	75.4	77.6	59	60.1	0	2	270	0.00	29.840 
20:15	75.4	75.4	77.6	59	60.1	0	2	270	0.00	29.842 
20:20	75.3	75.3	77.6	59	60.0	0	3	270	0.00	29.842 
20:25	74.9	74.9	74.9	59	59.6	0	1	270	0.00	29.842 
20:30	74.7	74.7	74.7	60	59.9	0	2	270	0.00	29.846 
20:35	74.6	74.6	74.6	62	60.7	0	1	270	0.00	29.846 
20:40	74.2	74.2	74.2	62	60.3	0	1	270	0.00	29.846 
20:45	73.9	73.9	73.9	63	60.5	0	1	270	0.00	29.849 
20:50	73.5	73.5	73.5	65	61.0	0	1	270	0.00	29.849 
20:55	73.3	73.3	73.3	66	61.2	0	1	270	0.00	29.849 
21:00	73.0	73.0	73.0	67	61.4	0	0	---	0.00	29.857 
21:05	72.7	72.7	72.7	68	61.5	0	0	---	0.00	29.857 
21:10	72.5	72.5	72.5	69	61.7	0	0	---	0.00	29.857 
21:15	72.1	72.1	72.1	69	61.4	0	0	---	0.00	29.857 
21:20	71.8	71.8	71.8	70	61.5	0	0	---	0.00	29.857 
21:25	71.5	71.5	71.5	71	61.6	0	0	---	0.00	29.857 
21:30	71.1	71.1	71.1	72	61.6	0	0	---	0.00	29.860 
21:35	70.8	70.8	70.8	73	61.7	0	0	---	0.00	29.860 
21:40	70.4	70.4	70.4	74	61.7	0	0	---	0.00	29.860 
21:45	70.1	70.1	70.1	75	61.8	0	0	---	0.00	29.866 
21:50	69.8	69.8	69.8	76	61.9	0	0	---	0.00	29.866 
21:55	69.4	69.4	69.4	76	61.5	0	0	---	0.00	29.866 
22:00	69.1	69.1	69.1	77	61.6	0	0	---	0.00	29.874 
22:05	68.8	68.8	68.8	78	61.7	0	0	---	0.00	29.874 
22:10	68.4	68.4	68.4	79	61.6	0	0	---	0.00	29.874 
22:15	67.9	67.9	67.9	80	61.5	0	0	---	0.00	29.875 
22:20	67.6	67.6	67.6	81	61.6	0	0	---	0.00	29.875 
22:25	67.3	67.3	67.3	82	61.6	0	0	---	0.00	29.875 
22:30	66.9	66.9	66.9	83	61.6	0	0	---	0.00	29.874 
22:35	66.6	66.6	66.6	84	61.6	0	0	---	0.00	29.874 
22:40	66.4	66.4	66.4	84	61.4	0	0	---	0.00	29.874 
22:45	66.1	66.1	66.1	85	61.5	0	0	---	0.00	29.877 
22:50	65.8	65.8	65.8	86	61.5	0	0	---	0.00	29.877 
22:55	65.5	65.5	65.5	87	61.5	0	0	---	0.00	29.877 
23:00	65.3	65.3	65.3	87	61.3	0	0	---	0.00	29.878 
23:05	65.2	65.2	65.2	88	61.6	0	0	---	0.00	29.878 
23:10	65.0	65.0	65.0	88	61.4	0	0	---	0.00	29.878 
23:15	64.7	64.7	64.7	88	61.1	0	0	---	0.00	29.878 
23:20	64.7	64.7	64.7	88	61.1	0	0	---	0.00	29.878 
23:25	64.5	64.5	64.5	89	61.2	0	0	---	0.00	29.878 
23:30	64.3	64.3	64.3	89	61.0	0	0	---	0.00	29.878 
23:35	64.2	64.2	64.2	89	60.9	0	0	---	0.00	29.878 
23:40	64.0	64.0	64.0	90	61.0	0	0	---	0.00	29.878 
23:45	63.9	63.9	63.9	90	60.9	0	0	---	0.00	29.877 
23:50	63.7	63.7	63.7	90	60.7	0	0	---	0.00	29.877 
23:55	63.5	63.5	63.5	91	60.8	0	0	---	0.00	29.877 

CoCoRaHS
IN-AL-39
A2 Web Hosting
Creative Commons License
GoDaddy
search engine by freefind advanced

loaded 2018-11-17 06:06:24 • last modified 2010-11-18 10:43:29
Privacy PolicyDisclaimer
• wx.awcolley.com is powered by PmWiki v.2002016 •
• all content (unless otherwise noted) © 2018 A W Colley